createdAt,value
2018-04-02T00:01:13.210Z,100684.02
2018-04-02T00:06:15.690Z,100681.26
2018-04-02T00:11:18.197Z,100676.73
2018-04-02T00:16:20.727Z,100677.81
2018-04-02T00:21:23.143Z,100691.23
2018-04-02T00:26:25.630Z,100693.06
2018-04-02T00:31:28.113Z,100690.81
2018-04-02T00:36:30.596Z,100709.37
2018-04-02T00:41:33.141Z,100706.97
2018-04-02T00:46:35.750Z,100698.09
2018-04-02T00:51:38.222Z,100703.80
2018-04-02T00:56:40.693Z,100707.01
2018-04-02T01:01:43.179Z,100715.80
2018-04-02T01:06:45.665Z,100716.82
2018-04-02T01:11:48.130Z,100719.20
2018-04-02T01:16:50.599Z,100726.53
2018-04-02T01:21:53.083Z,100737.56
2018-04-02T01:26:55.603Z,100734.66
2018-04-02T01:31:58.051Z,100737.61
2018-04-02T01:37:00.596Z,100738.58
2018-04-02T01:42:03.196Z,100748.44
2018-04-02T01:47:05.697Z,100761.06
2018-04-02T01:52:08.187Z,100756.59
2018-04-02T01:57:10.963Z,100750.77
2018-04-02T02:02:13.440Z,100758.75
2018-04-02T02:07:15.904Z,100760.29
2018-04-02T02:12:18.404Z,100759.37
2018-04-02T02:17:20.888Z,100765.89
2018-04-02T02:22:23.360Z,100769.73
2018-04-02T02:27:25.835Z,100772.03
2018-04-02T02:32:28.318Z,100777.70
2018-04-02T02:37:32.976Z,100776.45
2018-04-02T02:42:35.979Z,100787.55
2018-04-02T02:47:38.468Z,100780.75
2018-04-02T02:52:41.050Z,100790.41
2018-04-02T02:57:43.554Z,100789.08
2018-04-02T03:02:46.026Z,100784.91
2018-04-02T03:07:48.508Z,100791.56
2018-04-02T03:12:51.009Z,100792.03
2018-04-02T03:17:53.468Z,100791.56
2018-04-02T03:22:56.026Z,100790.17
2018-04-02T03:27:58.494Z,100789.94
2018-04-02T03:33:01.064Z,100789.55
2018-04-02T03:38:03.686Z,100798.51
2018-04-02T03:43:06.318Z,100806.27
2018-04-02T03:48:08.854Z,100809.03
2018-04-02T03:53:11.341Z,100815.17
2018-04-02T03:58:13.822Z,100824.38
2018-04-02T04:03:16.308Z,100819.21
2018-04-02T04:08:18.765Z,100817.58
2018-04-02T04:13:21.305Z,100815.66
2018-04-02T04:18:23.785Z,100820.23
2018-04-02T04:23:26.264Z,100824.69
2018-04-02T04:28:28.746Z,100831.05
2018-04-02T04:33:32.347Z,100836.34
2018-04-02T04:38:34.959Z,100827.13
2018-04-02T04:43:37.499Z,100838.67
2018-04-02T04:48:40.034Z,100848.48
2018-04-02T04:53:42.514Z,100841.56
2018-04-02T04:58:45.005Z,100842.67
2018-04-02T05:03:47.491Z,100848.02
2018-04-02T05:08:49.956Z,100848.81
2018-04-02T05:13:52.443Z,100856.16
2018-04-02T05:18:55.098Z,100852.62
2018-04-02T05:23:57.582Z,100865.73
2018-04-02T05:29:00.102Z,100872.08
2018-04-02T05:34:02.821Z,100876.01
2018-04-02T05:39:06.063Z,100867.11
2018-04-02T05:44:08.557Z,100873.97
2018-04-02T05:49:11.040Z,100872.27
2018-04-02T05:54:13.497Z,100875.90
2018-04-02T05:59:15.974Z,100882.38
2018-04-02T06:04:18.442Z,100886.69
2018-04-02T06:09:20.907Z,100890.06
2018-04-02T06:14:23.384Z,100894.36
2018-04-02T06:19:25.853Z,100895.50
2018-04-02T06:24:28.348Z,100896.52
2018-04-02T06:29:30.885Z,100897.59
2018-04-02T06:34:33.743Z,100894.70
2018-04-02T06:39:36.257Z,100896.77
2018-04-02T06:44:38.727Z,100891.05
2018-04-02T06:49:41.176Z,100899.97
2018-04-02T06:54:43.654Z,100892.84
2018-04-02T06:59:46.123Z,100898.36
2018-04-02T07:04:48.616Z,100899.23
2018-04-02T07:09:51.094Z,100907.50
2018-04-02T07:14:53.563Z,100905.02
2018-04-02T07:19:56.185Z,100911.97
2018-04-02T07:24:58.667Z,100911.69
2018-04-02T07:30:01.186Z,100906.91
2018-04-02T07:35:03.676Z,100910.02
2018-04-02T07:40:06.264Z,100909.72
2018-04-02T07:45:08.740Z,100923.55
2018-04-02T07:50:11.230Z,100929.73
2018-04-02T07:55:13.702Z,100936.00
2018-04-02T08:00:16.196Z,100941.87
2018-04-02T08:05:18.697Z,100949.45
2018-04-02T08:10:21.172Z,100939.87
2018-04-02T08:15:24.014Z,100950.98
2018-04-02T08:20:27.644Z,100955.52
2018-04-02T08:25:30.117Z,100947.00
2018-04-02T08:30:32.733Z,100955.65
2018-04-02T08:35:35.220Z,100955.86
2018-04-02T08:40:37.715Z,100957.22
2018-04-02T08:45:40.177Z,100953.02
2018-04-02T08:50:42.616Z,100953.50
2018-04-02T08:55:45.112Z,100944.12
2018-04-02T09:00:47.613Z,100954.25
2018-04-02T09:05:50.069Z,100945.84
2018-04-02T09:10:52.551Z,100944.41
2018-04-02T09:15:55.017Z,100946.06
2018-04-02T09:20:57.484Z,100935.41
2018-04-02T09:25:59.985Z,100934.95
2018-04-02T09:31:02.488Z,100923.10
2018-04-02T09:36:05.010Z,100918.48
2018-04-02T09:41:07.482Z,100923.91
2018-04-02T09:46:10.629Z,100917.26
2018-04-02T09:51:13.115Z,100912.13
2018-04-02T09:56:15.591Z,100911.22
2018-04-02T10:01:18.086Z,100903.94
2018-04-02T10:06:20.571Z,100909.98
2018-04-02T10:11:23.467Z,100903.52
2018-04-02T10:16:25.971Z,100902.76
2018-04-02T10:21:28.447Z,100910.14
2018-04-02T10:26:31.162Z,100895.64
2018-04-02T10:31:33.709Z,100898.26
2018-04-02T10:36:36.222Z,100890.03
2018-04-02T10:41:38.701Z,100887.14
2018-04-02T10:46:41.317Z,100882.41
2018-04-02T10:51:43.798Z,100879.06
2018-04-02T10:56:46.339Z,100873.69
2018-04-02T11:01:48.812Z,100864.36
2018-04-02T11:06:51.292Z,100853.79
2018-04-02T11:11:53.762Z,100858.28
2018-04-02T11:16:56.255Z,100846.13
2018-04-02T11:21:58.756Z,100836.45
2018-04-02T11:27:01.257Z,100846.45
2018-04-02T11:32:03.789Z,100839.51
2018-04-02T11:37:06.444Z,100831.41
2018-04-02T11:42:08.940Z,100831.20
2018-04-02T11:47:11.440Z,100822.32
2018-04-02T11:52:13.933Z,100823.23
2018-04-02T11:57:17.463Z,100811.18
2018-04-02T12:02:20.036Z,100819.89
2018-04-02T12:07:22.516Z,100813.91
2018-04-02T12:12:25.024Z,100804.18
2018-04-02T12:17:27.645Z,100799.66
2018-04-02T12:22:30.125Z,100801.20
2018-04-02T12:27:32.694Z,100794.42
2018-04-02T12:32:35.191Z,100786.55
2018-04-02T12:37:37.729Z,100788.77
2018-04-02T12:42:40.243Z,100777.42
2018-04-02T12:47:42.709Z,100767.80
2018-04-02T12:52:45.180Z,100767.00
2018-04-02T12:57:47.656Z,100769.72
2018-04-02T13:02:50.130Z,100774.09
2018-04-02T13:07:52.610Z,100764.15
2018-04-02T13:12:55.075Z,100761.42
2018-04-02T13:17:57.607Z,100753.78
2018-04-02T13:23:00.307Z,100756.64
2018-04-02T13:28:02.814Z,100748.20
2018-04-02T13:33:05.475Z,100743.95
2018-04-02T13:38:08.095Z,100752.20
2018-04-02T13:43:10.563Z,100738.81
2018-04-02T13:48:13.051Z,100741.74
2018-04-02T13:53:15.527Z,100727.33
2018-04-02T13:58:18.040Z,100722.74
2018-04-02T14:03:20.509Z,100715.88
2018-04-02T14:08:23.045Z,100705.48
2018-04-02T14:13:25.546Z,100712.68
2018-04-02T14:18:28.056Z,100708.86
2018-04-02T14:23:30.707Z,100711.80
2018-04-02T14:28:33.241Z,100711.36
2018-04-02T14:33:35.820Z,100693.98
2018-04-02T14:38:38.320Z,100679.84
2018-04-02T14:43:41.012Z,100678.66
2018-04-02T14:48:43.508Z,100682.92
2018-04-02T14:53:45.970Z,100667.11
2018-04-02T14:58:48.539Z,100659.40
2018-04-02T15:03:51.188Z,100650.70
2018-04-02T15:08:53.672Z,100655.98
2018-04-02T15:13:56.169Z,100647.59
2018-04-02T15:18:58.660Z,100643.64
2018-04-02T15:24:02.892Z,100631.16
2018-04-02T15:29:05.441Z,100631.53
2018-04-02T15:34:08.143Z,100626.08
2018-04-02T15:39:10.694Z,100622.48
2018-04-02T15:44:13.184Z,100625.30
2018-04-02T15:49:15.668Z,100619.19
2018-04-02T15:54:18.165Z,100612.93
2018-04-02T15:59:20.645Z,100603.02
2018-04-02T16:04:23.122Z,100598.59
2018-04-02T16:09:25.681Z,100600.35
2018-04-02T16:14:28.210Z,100596.41
2018-04-02T16:19:31.007Z,100590.66
2018-04-02T16:24:33.630Z,100579.50
2018-04-02T16:29:36.137Z,100590.61
2018-04-02T16:34:38.939Z,100576.58
2018-04-02T16:39:41.422Z,100579.32
2018-04-02T16:44:43.922Z,100573.91
2018-04-02T16:49:46.387Z,100577.98
2018-04-02T16:54:48.880Z,100575.52
2018-04-02T16:59:51.391Z,100577.63
2018-04-02T17:04:53.870Z,100580.85
2018-04-02T17:09:56.642Z,100575.08
2018-04-02T17:15:00.950Z,100568.87
2018-04-02T17:20:03.546Z,100564.73
2018-04-02T17:25:06.014Z,100565.44
2018-04-02T17:30:08.525Z,100567.48
2018-04-02T17:35:11.046Z,100572.83
2018-04-02T17:40:13.597Z,100571.33
2018-04-02T17:45:16.092Z,100567.56
2018-04-02T17:50:18.549Z,100563.14
2018-04-02T17:55:21.059Z,100562.72
2018-04-02T18:00:23.522Z,100556.47
2018-04-02T18:05:26.022Z,100559.36
2018-04-02T18:10:28.504Z,100565.53
2018-04-02T18:15:31.012Z,100560.83
2018-04-02T18:20:34.661Z,100561.05
2018-04-02T18:25:37.159Z,100549.11
2018-04-02T18:30:39.718Z,100549.36
2018-04-02T18:35:42.189Z,100538.80
2018-04-02T18:40:44.721Z,100525.34
2018-04-02T18:45:47.248Z,100512.84
2018-04-02T18:50:49.760Z,100506.43
2018-04-02T18:55:52.415Z,100496.83
2018-04-02T19:00:54.902Z,100515.31
2018-04-02T19:05:59.567Z,100510.08
2018-04-02T19:11:02.128Z,100516.34
2018-04-02T19:16:04.919Z,100521.19
2018-04-02T19:21:07.453Z,100517.91
2018-04-02T19:26:10.034Z,100517.23
2018-04-02T19:31:12.554Z,100513.20
2018-04-02T19:36:15.033Z,100500.01
2018-04-02T19:41:17.504Z,100503.07
2018-04-02T19:46:21.353Z,100492.75
2018-04-02T19:51:23.943Z,100485.71
2018-04-02T19:56:26.432Z,100476.66
2018-04-02T20:01:29.368Z,100473.55
2018-04-02T20:06:32.586Z,100463.84
2018-04-02T20:11:35.252Z,100469.42
2018-04-02T20:16:37.830Z,100467.30
2018-04-02T20:21:40.609Z,100453.61
2018-04-02T20:26:45.819Z,100450.10
2018-04-02T20:31:50.536Z,100448.91
2018-04-02T20:36:56.796Z,100445.81
2018-04-02T20:42:02.572Z,100437.73
2018-04-02T20:47:05.453Z,100434.10
2018-04-02T20:52:08.037Z,100430.45
2018-04-02T20:57:10.787Z,100420.34
2018-04-02T21:02:13.303Z,100423.48
2018-04-02T21:07:16.249Z,100410.37
2018-04-02T21:12:21.348Z,100405.71
2018-04-02T21:17:25.059Z,100400.36
2018-04-02T21:22:29.496Z,100393.70
2018-04-02T21:27:31.995Z,100380.72
2018-04-02T21:32:35.072Z,100378.55
2018-04-02T21:37:37.764Z,100364.75
2018-04-02T21:42:40.356Z,100360.83
2018-04-02T21:47:42.940Z,100349.31
2018-04-02T21:52:45.406Z,100339.94
2018-04-02T21:57:47.908Z,100337.66
2018-04-02T22:02:50.395Z,100336.11
2018-04-02T22:07:52.856Z,100327.61
2018-04-02T22:12:55.311Z,100328.75
2018-04-02T22:17:59.356Z,100317.41
2018-04-02T22:23:01.856Z,100315.48
2018-04-02T22:28:04.371Z,100304.97
2018-04-02T22:33:06.906Z,100300.82
2018-04-02T22:38:09.516Z,100295.56
2018-04-02T22:43:13.296Z,100291.55
2018-04-02T22:48:16.073Z,100282.62
2018-04-02T22:53:18.598Z,100271.88
2018-04-02T22:58:21.100Z,100266.59
2018-04-02T23:03:23.602Z,100258.87
2018-04-02T23:08:26.072Z,100250.17
2018-04-02T23:13:28.554Z,100246.51
2018-04-02T23:18:31.073Z,100239.00
2018-04-02T23:23:33.612Z,100243.50
2018-04-02T23:28:36.146Z,100237.05
2018-04-02T23:33:38.646Z,100228.81
2018-04-02T23:38:41.101Z,100224.11
2018-04-02T23:43:43.719Z,100216.28
2018-04-02T23:48:46.213Z,100210.43
2018-04-02T23:53:48.728Z,100214.64
2018-04-02T23:58:51.198Z,100209.32
